sensor_id;sensor_type;location;lat;lon;timestamp;P1;durP1;ratioP1;P2;durP2;ratioP2
76380;SDS011;65202;52.520;10.528;2023-01-23T00:01:27;95.53;;;26.77;;
76380;SDS011;65202;52.520;10.528;2023-01-23T00:03:57;91.60;;;27.83;;
76380;SDS011;65202;52.520;10.528;2023-01-23T00:06:26;79.95;;;25.65;;
76380;SDS011;65202;52.520;10.528;2023-01-23T00:08:54;84.68;;;25.70;;
76380;SDS011;65202;52.520;10.528;2023-01-23T00:11:23;82.05;;;25.67;;
76380;SDS011;65202;52.520;10.528;2023-01-23T00:13:54;84.38;;;26.13;;
76380;SDS011;65202;52.520;10.528;2023-01-23T00:16:24;82.38;;;25.35;;
76380;SDS011;65202;52.520;10.528;2023-01-23T00:18:55;87.50;;;25.98;;
76380;SDS011;65202;52.520;10.528;2023-01-23T00:21:24;85.95;;;27.20;;
76380;SDS011;65202;52.520;10.528;2023-01-23T00:23:55;80.38;;;25.73;;
76380;SDS011;65202;52.520;10.528;2023-01-23T00:26:25;76.28;;;25.35;;
76380;SDS011;65202;52.520;10.528;2023-01-23T00:28:54;82.22;;;25.52;;
76380;SDS011;65202;52.520;10.528;2023-01-23T00:31:24;91.15;;;27.35;;
76380;SDS011;65202;52.520;10.528;2023-01-23T00:33:57;84.47;;;25.77;;
76380;SDS011;65202;52.520;10.528;2023-01-23T00:36:29;84.80;;;27.00;;
76380;SDS011;65202;52.520;10.528;2023-01-23T00:39:00;86.28;;;26.35;;
76380;SDS011;65202;52.520;10.528;2023-01-23T00:41:28;78.68;;;26.48;;
76380;SDS011;65202;52.520;10.528;2023-01-23T00:43:55;80.28;;;25.70;;
76380;SDS011;65202;52.520;10.528;2023-01-23T00:46:22;88.90;;;26.08;;
76380;SDS011;65202;52.520;10.528;2023-01-23T00:48:50;82.22;;;26.55;;
76380;SDS011;65202;52.520;10.528;2023-01-23T00:51:17;86.97;;;26.90;;
76380;SDS011;65202;52.520;10.528;2023-01-23T00:53:45;106.65;;;28.20;;
76380;SDS011;65202;52.520;10.528;2023-01-23T00:56:12;89.38;;;27.40;;
76380;SDS011;65202;52.520;10.528;2023-01-23T00:58:39;87.75;;;27.27;;
76380;SDS011;65202;52.520;10.528;2023-01-23T01:01:10;90.30;;;26.02;;
76380;SDS011;65202;52.520;10.528;2023-01-23T01:03:39;98.68;;;27.42;;
76380;SDS011;65202;52.520;10.528;2023-01-23T01:06:07;81.80;;;25.08;;
76380;SDS011;65202;52.520;10.528;2023-01-23T01:08:36;87.78;;;25.42;;
76380;SDS011;65202;52.520;10.528;2023-01-23T01:11:03;90.32;;;25.45;;
76380;SDS011;65202;52.520;10.528;2023-01-23T01:13:30;97.00;;;28.50;;
76380;SDS011;65202;52.520;10.528;2023-01-23T01:15:58;91.40;;;26.65;;
76380;SDS011;65202;52.520;10.528;2023-01-23T01:18:28;82.53;;;27.10;;
76380;SDS011;65202;52.520;10.528;2023-01-23T01:20:56;88.00;;;27.42;;
76380;SDS011;65202;52.520;10.528;2023-01-23T01:23:25;81.38;;;25.58;;
76380;SDS011;65202;52.520;10.528;2023-01-23T01:25:56;89.18;;;25.45;;
76380;SDS011;65202;52.520;10.528;2023-01-23T01:28:25;75.15;;;25.50;;
76380;SDS011;65202;52.520;10.528;2023-01-23T01:30:56;86.38;;;24.75;;
76380;SDS011;65202;52.520;10.528;2023-01-23T01:33:24;71.80;;;24.67;;
76380;SDS011;65202;52.520;10.528;2023-01-23T01:35:51;79.45;;;25.73;;
76380;SDS011;65202;52.520;10.528;2023-01-23T01:38:18;69.15;;;24.77;;
76380;SDS011;65202;52.520;10.528;2023-01-23T01:40:45;66.15;;;24.33;;
76380;SDS011;65202;52.520;10.528;2023-01-23T01:43:20;67.75;;;24.30;;
76380;SDS011;65202;52.520;10.528;2023-01-23T01:46:10;64.80;;;23.67;;
76380;SDS011;65202;52.520;10.528;2023-01-23T01:51:32;70.15;;;24.25;;
76380;SDS011;65202;52.520;10.528;2023-01-23T01:57:03;70.93;;;25.25;;
76380;SDS011;65202;52.520;10.528;2023-01-23T01:59:53;78.22;;;25.33;;
76380;SDS011;65202;52.520;10.528;2023-01-23T02:02:46;68.60;;;24.80;;
76380;SDS011;65202;52.520;10.528;2023-01-23T02:05:20;64.35;;;23.63;;
76380;SDS011;65202;52.520;10.528;2023-01-23T02:10:35;63.22;;;23.08;;
76380;SDS011;65202;52.520;10.528;2023-01-23T02:13:23;67.10;;;24.42;;
76380;SDS011;65202;52.520;10.528;2023-01-23T02:16:06;56.55;;;22.85;;
76380;SDS011;65202;52.520;10.528;2023-01-23T02:18:34;58.40;;;23.60;;
76380;SDS011;65202;52.520;10.528;2023-01-23T02:21:10;55.95;;;23.08;;
76380;SDS011;65202;52.520;10.528;2023-01-23T02:26:45;55.35;;;23.77;;
76380;SDS011;65202;52.520;10.528;2023-01-23T02:29:13;46.60;;;21.60;;
76380;SDS011;65202;52.520;10.528;2023-01-23T02:31:42;51.63;;;23.17;;
76380;SDS011;65202;52.520;10.528;2023-01-23T02:34:12;47.17;;;21.95;;
76380;SDS011;65202;52.520;10.528;2023-01-23T02:36:41;52.25;;;22.90;;
76380;SDS011;65202;52.520;10.528;2023-01-23T02:39:15;51.83;;;23.58;;
76380;SDS011;65202;52.520;10.528;2023-01-23T02:41:46;57.00;;;23.13;;
76380;SDS011;65202;52.520;10.528;2023-01-23T02:44:19;62.05;;;24.42;;
76380;SDS011;65202;52.520;10.528;2023-01-23T02:46:55;55.58;;;24.50;;
76380;SDS011;65202;52.520;10.528;2023-01-23T02:49:27;47.95;;;22.50;;
76380;SDS011;65202;52.520;10.528;2023-01-23T02:51:55;50.00;;;22.80;;
76380;SDS011;65202;52.520;10.528;2023-01-23T02:54:22;54.85;;;24.30;;
76380;SDS011;65202;52.520;10.528;2023-01-23T02:56:50;50.25;;;23.35;;
76380;SDS011;65202;52.520;10.528;2023-01-23T02:59:17;51.28;;;22.75;;
76380;SDS011;65202;52.520;10.528;2023-01-23T03:02:03;46.53;;;22.58;;
76380;SDS011;65202;52.520;10.528;2023-01-23T03:04:32;51.45;;;21.60;;
76380;SDS011;65202;52.520;10.528;2023-01-23T03:06:59;52.83;;;22.33;;
76380;SDS011;65202;52.520;10.528;2023-01-23T03:09:26;44.00;;;21.17;;
76380;SDS011;65202;52.520;10.528;2023-01-23T03:11:53;41.58;;;21.15;;
76380;SDS011;65202;52.520;10.528;2023-01-23T03:14:21;50.30;;;22.25;;
76380;SDS011;65202;52.520;10.528;2023-01-23T03:16:50;50.97;;;22.85;;
76380;SDS011;65202;52.520;10.528;2023-01-23T03:19:22;48.53;;;23.15;;
76380;SDS011;65202;52.520;10.528;2023-01-23T03:21:52;49.42;;;23.17;;
76380;SDS011;65202;52.520;10.528;2023-01-23T03:24:20;46.78;;;22.17;;
76380;SDS011;65202;52.520;10.528;2023-01-23T03:26:48;55.60;;;23.60;;
76380;SDS011;65202;52.520;10.528;2023-01-23T03:29:18;48.70;;;22.33;;
76380;SDS011;65202;52.520;10.528;2023-01-23T03:32:08;51.17;;;22.02;;
76380;SDS011;65202;52.520;10.528;2023-01-23T03:34:37;48.22;;;22.63;;
76380;SDS011;65202;52.520;10.528;2023-01-23T03:37:05;47.70;;;22.55;;
76380;SDS011;65202;52.520;10.528;2023-01-23T03:39:33;54.65;;;23.85;;
76380;SDS011;65202;52.520;10.528;2023-01-23T03:42:20;47.50;;;22.13;;
76380;SDS011;65202;52.520;10.528;2023-01-23T03:44:47;58.10;;;23.88;;
76380;SDS011;65202;52.520;10.528;2023-01-23T03:47:16;61.17;;;24.70;;
76380;SDS011;65202;52.520;10.528;2023-01-23T03:49:44;59.85;;;26.33;;
76380;SDS011;65202;52.520;10.528;2023-01-23T03:52:11;57.85;;;25.92;;
76380;SDS011;65202;52.520;10.528;2023-01-23T03:54:38;59.72;;;25.55;;
76380;SDS011;65202;52.520;10.528;2023-01-23T03:57:05;54.55;;;23.88;;
76380;SDS011;65202;52.520;10.528;2023-01-23T03:59:32;57.90;;;24.83;;
76380;SDS011;65202;52.520;10.528;2023-01-23T04:02:00;53.80;;;24.42;;
76380;SDS011;65202;52.520;10.528;2023-01-23T04:04:31;57.95;;;24.10;;
76380;SDS011;65202;52.520;10.528;2023-01-23T04:06:59;57.97;;;23.92;;
76380;SDS011;65202;52.520;10.528;2023-01-23T04:09:27;57.00;;;25.98;;
76380;SDS011;65202;52.520;10.528;2023-01-23T04:11:56;61.95;;;24.25;;
76380;SDS011;65202;52.520;10.528;2023-01-23T04:14:25;60.90;;;25.73;;
76380;SDS011;65202;52.520;10.528;2023-01-23T04:16:53;76.32;;;29.73;;
76380;SDS011;65202;52.520;10.528;2023-01-23T04:19:20;64.82;;;26.05;;
76380;SDS011;65202;52.520;10.528;2023-01-23T04:21:48;64.30;;;26.50;;
76380;SDS011;65202;52.520;10.528;2023-01-23T04:24:16;71.82;;;27.30;;
76380;SDS011;65202;52.520;10.528;2023-01-23T04:26:43;64.38;;;25.40;;
76380;SDS011;65202;52.520;10.528;2023-01-23T04:29:11;60.80;;;24.98;;
76380;SDS011;65202;52.520;10.528;2023-01-23T04:31:38;65.85;;;25.10;;
76380;SDS011;65202;52.520;10.528;2023-01-23T04:34:06;62.72;;;24.17;;
76380;SDS011;65202;52.520;10.528;2023-01-23T04:36:33;63.45;;;25.77;;
76380;SDS011;65202;52.520;10.528;2023-01-23T04:39:00;64.47;;;25.33;;
76380;SDS011;65202;52.520;10.528;2023-01-23T04:41:29;65.07;;;25.00;;
76380;SDS011;65202;52.520;10.528;2023-01-23T04:43:58;71.85;;;25.33;;
76380;SDS011;65202;52.520;10.528;2023-01-23T04:46:46;62.63;;;25.52;;
76380;SDS011;65202;52.520;10.528;2023-01-23T04:49:21;72.30;;;25.90;;
76380;SDS011;65202;52.520;10.528;2023-01-23T04:51:50;64.53;;;24.70;;
76380;SDS011;65202;52.520;10.528;2023-01-23T04:54:19;62.97;;;25.83;;
76380;SDS011;65202;52.520;10.528;2023-01-23T04:56:47;64.50;;;25.25;;
76380;SDS011;65202;52.520;10.528;2023-01-23T04:59:14;67.95;;;25.33;;
76380;SDS011;65202;52.520;10.528;2023-01-23T05:01:42;67.85;;;24.48;;
76380;SDS011;65202;52.520;10.528;2023-01-23T05:04:11;64.47;;;24.92;;
76380;SDS011;65202;52.520;10.528;2023-01-23T05:06:38;60.47;;;24.52;;
76380;SDS011;65202;52.520;10.528;2023-01-23T05:09:05;58.88;;;24.35;;
76380;SDS011;65202;52.520;10.528;2023-01-23T05:11:33;61.92;;;24.73;;
76380;SDS011;65202;52.520;10.528;2023-01-23T05:14:00;69.63;;;25.20;;
76380;SDS011;65202;52.520;10.528;2023-01-23T05:16:27;61.35;;;25.25;;
76380;SDS011;65202;52.520;10.528;2023-01-23T05:18:54;60.92;;;25.35;;
76380;SDS011;65202;52.520;10.528;2023-01-23T05:21:22;59.42;;;24.05;;
76380;SDS011;65202;52.520;10.528;2023-01-23T05:23:51;58.20;;;24.27;;
76380;SDS011;65202;52.520;10.528;2023-01-23T05:26:18;55.75;;;24.88;;
76380;SDS011;65202;52.520;10.528;2023-01-23T05:28:46;53.15;;;24.25;;
76380;SDS011;65202;52.520;10.528;2023-01-23T05:31:13;55.63;;;24.80;;
76380;SDS011;65202;52.520;10.528;2023-01-23T05:33:40;56.00;;;23.77;;
76380;SDS011;65202;52.520;10.528;2023-01-23T05:36:08;50.35;;;23.10;;
76380;SDS011;65202;52.520;10.528;2023-01-23T05:38:35;50.65;;;23.35;;
76380;SDS011;65202;52.520;10.528;2023-01-23T05:41:02;47.80;;;22.88;;
76380;SDS011;65202;52.520;10.528;2023-01-23T05:43:29;47.80;;;22.75;;
76380;SDS011;65202;52.520;10.528;2023-01-23T05:46:00;51.42;;;21.75;;
76380;SDS011;65202;52.520;10.528;2023-01-23T05:48:28;51.80;;;23.35;;
76380;SDS011;65202;52.520;10.528;2023-01-23T05:50:55;54.47;;;24.77;;
76380;SDS011;65202;52.520;10.528;2023-01-23T05:53:23;47.10;;;22.58;;
76380;SDS011;65202;52.520;10.528;2023-01-23T05:55:50;46.85;;;21.83;;
76380;SDS011;65202;52.520;10.528;2023-01-23T05:58:17;47.63;;;22.08;;
76380;SDS011;65202;52.520;10.528;2023-01-23T06:00:44;41.00;;;21.25;;
76380;SDS011;65202;52.520;10.528;2023-01-23T06:03:11;38.40;;;20.25;;
76380;SDS011;65202;52.520;10.528;2023-01-23T06:05:39;41.63;;;21.25;;
76380;SDS011;65202;52.520;10.528;2023-01-23T06:08:07;43.38;;;21.10;;
76380;SDS011;65202;52.520;10.528;2023-01-23T06:10:35;42.42;;;21.10;;
76380;SDS011;65202;52.520;10.528;2023-01-23T06:13:04;38.50;;;19.70;;
76380;SDS011;65202;52.520;10.528;2023-01-23T06:15:31;45.20;;;21.55;;
76380;SDS011;65202;52.520;10.528;2023-01-23T06:17:58;43.08;;;21.65;;
76380;SDS011;65202;52.520;10.528;2023-01-23T06:20:26;42.70;;;21.17;;
76380;SDS011;65202;52.520;10.528;2023-01-23T06:22:53;47.60;;;22.77;;
76380;SDS011;65202;52.520;10.528;2023-01-23T06:25:20;42.08;;;21.55;;
76380;SDS011;65202;52.520;10.528;2023-01-23T06:27:48;45.72;;;22.88;;
76380;SDS011;65202;52.520;10.528;2023-01-23T06:30:15;50.28;;;24.73;;
76380;SDS011;65202;52.520;10.528;2023-01-23T06:32:44;45.05;;;22.35;;
76380;SDS011;65202;52.520;10.528;2023-01-23T06:35:11;52.95;;;25.17;;
76380;SDS011;65202;52.520;10.528;2023-01-23T06:37:38;45.97;;;23.05;;
76380;SDS011;65202;52.520;10.528;2023-01-23T06:40:05;49.88;;;23.92;;
76380;SDS011;65202;52.520;10.528;2023-01-23T06:42:33;46.53;;;23.02;;
76380;SDS011;65202;52.520;10.528;2023-01-23T06:45:01;46.38;;;22.13;;
76380;SDS011;65202;52.520;10.528;2023-01-23T06:47:28;48.65;;;22.95;;
76380;SDS011;65202;52.520;10.528;2023-01-23T06:49:55;54.35;;;23.73;;
76380;SDS011;65202;52.520;10.528;2023-01-23T06:52:22;53.58;;;25.00;;
76380;SDS011;65202;52.520;10.528;2023-01-23T06:54:49;52.47;;;23.77;;
76380;SDS011;65202;52.520;10.528;2023-01-23T06:57:17;57.33;;;26.08;;
76380;SDS011;65202;52.520;10.528;2023-01-23T06:59:44;51.47;;;25.15;;
76380;SDS011;65202;52.520;10.528;2023-01-23T07:02:11;57.83;;;26.02;;
76380;SDS011;65202;52.520;10.528;2023-01-23T07:04:39;60.72;;;26.65;;
76380;SDS011;65202;52.520;10.528;2023-01-23T07:07:06;62.63;;;27.70;;
76380;SDS011;65202;52.520;10.528;2023-01-23T07:09:33;60.65;;;27.90;;
76380;SDS011;65202;52.520;10.528;2023-01-23T07:12:00;51.50;;;24.42;;
76380;SDS011;65202;52.520;10.528;2023-01-23T07:14:27;61.13;;;26.23;;
76380;SDS011;65202;52.520;10.528;2023-01-23T07:16:54;61.78;;;27.58;;
76380;SDS011;65202;52.520;10.528;2023-01-23T07:19:22;55.03;;;26.67;;
76380;SDS011;65202;52.520;10.528;2023-01-23T07:21:49;59.88;;;27.33;;
76380;SDS011;65202;52.520;10.528;2023-01-23T07:24:16;66.10;;;27.75;;
76380;SDS011;65202;52.520;10.528;2023-01-23T07:26:43;61.47;;;28.73;;
76380;SDS011;65202;52.520;10.528;2023-01-23T07:29:10;64.13;;;27.70;;
76380;SDS011;65202;52.520;10.528;2023-01-23T07:31:38;66.30;;;26.98;;
76380;SDS011;65202;52.520;10.528;2023-01-23T07:34:05;61.72;;;28.05;;
76380;SDS011;65202;52.520;10.528;2023-01-23T07:36:32;63.97;;;27.60;;
76380;SDS011;65202;52.520;10.528;2023-01-23T07:38:59;61.97;;;27.17;;
76380;SDS011;65202;52.520;10.528;2023-01-23T07:41:27;65.13;;;27.60;;
76380;SDS011;65202;52.520;10.528;2023-01-23T07:43:54;65.30;;;27.05;;
76380;SDS011;65202;52.520;10.528;2023-01-23T07:46:21;67.03;;;27.65;;
76380;SDS011;65202;52.520;10.528;2023-01-23T07:48:51;75.20;;;26.90;;
76380;SDS011;65202;52.520;10.528;2023-01-23T07:51:18;67.85;;;27.80;;
76380;SDS011;65202;52.520;10.528;2023-01-23T07:53:45;63.38;;;25.15;;
76380;SDS011;65202;52.520;10.528;2023-01-23T07:56:13;66.07;;;26.95;;
76380;SDS011;65202;52.520;10.528;2023-01-23T07:58:40;63.30;;;26.90;;
76380;SDS011;65202;52.520;10.528;2023-01-23T08:01:10;62.72;;;26.98;;
76380;SDS011;65202;52.520;10.528;2023-01-23T08:03:38;59.13;;;26.63;;
76380;SDS011;65202;52.520;10.528;2023-01-23T08:06:05;60.67;;;25.92;;
76380;SDS011;65202;52.520;10.528;2023-01-23T08:08:33;56.78;;;26.63;;
76380;SDS011;65202;52.520;10.528;2023-01-23T08:11:07;57.97;;;26.40;;
76380;SDS011;65202;52.520;10.528;2023-01-23T08:13:40;56.15;;;25.80;;
76380;SDS011;65202;52.520;10.528;2023-01-23T08:16:07;58.88;;;25.83;;
76380;SDS011;65202;52.520;10.528;2023-01-23T08:18:36;54.97;;;25.58;;
76380;SDS011;65202;52.520;10.528;2023-01-23T08:21:03;57.10;;;25.10;;
76380;SDS011;65202;52.520;10.528;2023-01-23T08:23:31;56.13;;;24.83;;
76380;SDS011;65202;52.520;10.528;2023-01-23T08:26:04;57.45;;;25.65;;
76380;SDS011;65202;52.520;10.528;2023-01-23T08:28:34;65.93;;;25.67;;
76380;SDS011;65202;52.520;10.528;2023-01-23T08:31:03;59.75;;;25.92;;
76380;SDS011;65202;52.520;10.528;2023-01-23T08:33:33;55.90;;;25.60;;
76380;SDS011;65202;52.520;10.528;2023-01-23T08:36:03;53.15;;;25.45;;
76380;SDS011;65202;52.520;10.528;2023-01-23T08:38:31;57.42;;;26.02;;
76380;SDS011;65202;52.520;10.528;2023-01-23T08:40:59;58.72;;;26.02;;
76380;SDS011;65202;52.520;10.528;2023-01-23T08:43:28;64.35;;;25.77;;
76380;SDS011;65202;52.520;10.528;2023-01-23T08:45:56;60.58;;;26.23;;
76380;SDS011;65202;52.520;10.528;2023-01-23T08:48:25;60.13;;;25.00;;
76380;SDS011;65202;52.520;10.528;2023-01-23T08:51:01;58.42;;;25.13;;
76380;SDS011;65202;52.520;10.528;2023-01-23T08:53:32;59.25;;;26.08;;
76380;SDS011;65202;52.520;10.528;2023-01-23T08:56:01;56.90;;;25.00;;
76380;SDS011;65202;52.520;10.528;2023-01-23T08:58:36;58.60;;;24.85;;
76380;SDS011;65202;52.520;10.528;2023-01-23T09:01:03;63.17;;;26.65;;
76380;SDS011;65202;52.520;10.528;2023-01-23T09:03:30;61.95;;;25.23;;
76380;SDS011;65202;52.520;10.528;2023-01-23T09:06:00;56.85;;;24.73;;
76380;SDS011;65202;52.520;10.528;2023-01-23T09:08:28;63.58;;;26.02;;
76380;SDS011;65202;52.520;10.528;2023-01-23T09:11:02;60.72;;;25.73;;
76380;SDS011;65202;52.520;10.528;2023-01-23T09:13:32;70.95;;;26.60;;
76380;SDS011;65202;52.520;10.528;2023-01-23T09:16:00;64.30;;;26.80;;
76380;SDS011;65202;52.520;10.528;2023-01-23T09:18:28;74.43;;;27.70;;
76380;SDS011;65202;52.520;10.528;2023-01-23T09:20:55;71.25;;;27.98;;
76380;SDS011;65202;52.520;10.528;2023-01-23T09:23:23;74.78;;;27.58;;
76380;SDS011;65202;52.520;10.528;2023-01-23T09:25:50;73.93;;;28.05;;
76380;SDS011;65202;52.520;10.528;2023-01-23T09:28:17;75.65;;;27.02;;
76380;SDS011;65202;52.520;10.528;2023-01-23T09:30:45;71.60;;;27.05;;
76380;SDS011;65202;52.520;10.528;2023-01-23T09:33:12;69.70;;;26.95;;
76380;SDS011;65202;52.520;10.528;2023-01-23T09:35:39;72.78;;;27.33;;
76380;SDS011;65202;52.520;10.528;2023-01-23T09:38:06;71.22;;;26.75;;
76380;SDS011;65202;52.520;10.528;2023-01-23T09:40:34;66.60;;;26.77;;
76380;SDS011;65202;52.520;10.528;2023-01-23T09:43:14;68.57;;;26.30;;
76380;SDS011;65202;52.520;10.528;2023-01-23T09:45:49;68.22;;;27.30;;
76380;SDS011;65202;52.520;10.528;2023-01-23T09:48:42;68.43;;;25.90;;
76380;SDS011;65202;52.520;10.528;2023-01-23T09:54:18;62.28;;;26.73;;
76380;SDS011;65202;52.520;10.528;2023-01-23T09:57:10;65.78;;;26.88;;
76380;SDS011;65202;52.520;10.528;2023-01-23T09:59:58;58.35;;;25.25;;
76380;SDS011;65202;52.520;10.528;2023-01-23T10:02:48;59.70;;;25.45;;
76380;SDS011;65202;52.520;10.528;2023-01-23T10:05:16;61.90;;;26.02;;
76380;SDS011;65202;52.520;10.528;2023-01-23T10:08:03;62.87;;;26.43;;
76380;SDS011;65202;52.520;10.528;2023-01-23T10:10:57;61.73;;;25.20;;
76380;SDS011;65202;52.520;10.528;2023-01-23T10:13:49;65.10;;;25.80;;
76380;SDS011;65202;52.520;10.528;2023-01-23T10:25:14;64.78;;;25.77;;
76380;SDS011;65202;52.520;10.528;2023-01-23T10:27:48;58.75;;;25.42;;
76380;SDS011;65202;52.520;10.528;2023-01-23T10:30:31;60.05;;;25.33;;
76380;SDS011;65202;52.520;10.528;2023-01-23T10:35:48;60.53;;;25.83;;
76380;SDS011;65202;52.520;10.528;2023-01-23T10:38:26;63.20;;;27.60;;
76380;SDS011;65202;52.520;10.528;2023-01-23T10:41:10;63.30;;;27.52;;
76380;SDS011;65202;52.520;10.528;2023-01-23T10:43:41;66.72;;;27.73;;
76380;SDS011;65202;52.520;10.528;2023-01-23T10:46:19;62.10;;;26.58;;
76380;SDS011;65202;52.520;10.528;2023-01-23T10:48:56;65.45;;;27.83;;
76380;SDS011;65202;52.520;10.528;2023-01-23T10:51:31;65.43;;;27.40;;
76380;SDS011;65202;52.520;10.528;2023-01-23T10:54:05;60.42;;;27.33;;
76380;SDS011;65202;52.520;10.528;2023-01-23T10:56:58;63.43;;;27.70;;
76380;SDS011;65202;52.520;10.528;2023-01-23T10:59:36;63.78;;;27.27;;
76380;SDS011;65202;52.520;10.528;2023-01-23T11:04:42;62.85;;;27.33;;
76380;SDS011;65202;52.520;10.528;2023-01-23T11:07:13;60.92;;;26.70;;
76380;SDS011;65202;52.520;10.528;2023-01-23T11:12:23;57.40;;;25.48;;
76380;SDS011;65202;52.520;10.528;2023-01-23T11:15:15;63.40;;;26.88;;
76380;SDS011;65202;52.520;10.528;2023-01-23T11:18:00;59.60;;;26.25;;
76380;SDS011;65202;52.520;10.528;2023-01-23T11:20:38;63.50;;;26.73;;
76380;SDS011;65202;52.520;10.528;2023-01-23T11:25:42;56.03;;;25.55;;
76380;SDS011;65202;52.520;10.528;2023-01-23T11:28:19;63.53;;;27.80;;
76380;SDS011;65202;52.520;10.528;2023-01-23T11:30:54;64.60;;;27.63;;
76380;SDS011;65202;52.520;10.528;2023-01-23T11:33:51;66.20;;;27.50;;
76380;SDS011;65202;52.520;10.528;2023-01-23T11:39:47;68.23;;;29.33;;
76380;SDS011;65202;52.520;10.528;2023-01-23T11:42:26;61.80;;;26.02;;
76380;SDS011;65202;52.520;10.528;2023-01-23T11:44:55;67.05;;;27.75;;
76380;SDS011;65202;52.520;10.528;2023-01-23T12:05:45;66.35;;;27.88;;
76380;SDS011;65202;52.520;10.528;2023-01-23T12:09:12;65.43;;;26.73;;
76380;SDS011;65202;52.520;10.528;2023-01-23T12:11:46;76.03;;;29.52;;
76380;SDS011;65202;52.520;10.528;2023-01-23T12:18:14;68.55;;;28.52;;
76380;SDS011;65202;52.520;10.528;2023-01-23T12:20:59;63.28;;;26.42;;
76380;SDS011;65202;52.520;10.528;2023-01-23T12:26:36;60.45;;;27.52;;
76380;SDS011;65202;52.520;10.528;2023-01-23T12:29:38;61.67;;;26.90;;
76380;SDS011;65202;52.520;10.528;2023-01-23T12:32:47;59.13;;;26.35;;
76380;SDS011;65202;52.520;10.528;2023-01-23T12:36:06;57.78;;;26.13;;
76380;SDS011;65202;52.520;10.528;2023-01-23T12:41:50;57.80;;;25.17;;
76380;SDS011;65202;52.520;10.528;2023-01-23T12:44:31;56.97;;;25.98;;
76380;SDS011;65202;52.520;10.528;2023-01-23T12:47:13;56.83;;;25.70;;
76380;SDS011;65202;52.520;10.528;2023-01-23T12:49:56;58.67;;;26.50;;
76380;SDS011;65202;52.520;10.528;2023-01-23T12:52:33;62.28;;;27.45;;
76380;SDS011;65202;52.520;10.528;2023-01-23T12:55:21;57.45;;;25.50;;
76380;SDS011;65202;52.520;10.528;2023-01-23T12:57:56;56.17;;;26.35;;
76380;SDS011;65202;52.520;10.528;2023-01-23T13:00:37;66.35;;;27.23;;
76380;SDS011;65202;52.520;10.528;2023-01-23T13:09:39;58.33;;;25.48;;
76380;SDS011;65202;52.520;10.528;2023-01-23T13:12:53;61.25;;;25.65;;
76380;SDS011;65202;52.520;10.528;2023-01-23T13:15:30;58.20;;;25.52;;
76380;SDS011;65202;52.520;10.528;2023-01-23T13:18:16;53.38;;;24.27;;
76380;SDS011;65202;52.520;10.528;2023-01-23T13:20:57;61.65;;;26.35;;
76380;SDS011;65202;52.520;10.528;2023-01-23T13:23:47;67.47;;;25.95;;
76380;SDS011;65202;52.520;10.528;2023-01-23T13:26:34;67.53;;;26.55;;
76380;SDS011;65202;52.520;10.528;2023-01-23T13:29:02;65.80;;;27.70;;
76380;SDS011;65202;52.520;10.528;2023-01-23T13:31:35;68.68;;;27.50;;
76380;SDS011;65202;52.520;10.528;2023-01-23T13:36:47;67.05;;;26.80;;
76380;SDS011;65202;52.520;10.528;2023-01-23T13:41:43;64.82;;;27.60;;
76380;SDS011;65202;52.520;10.528;2023-01-23T13:53:20;69.55;;;28.63;;
76380;SDS011;65202;52.520;10.528;2023-01-23T13:56:23;64.80;;;26.92;;
76380;SDS011;65202;52.520;10.528;2023-01-23T13:59:28;72.43;;;27.23;;
76380;SDS011;65202;52.520;10.528;2023-01-23T14:02:23;70.47;;;28.35;;
76380;SDS011;65202;52.520;10.528;2023-01-23T14:05:32;69.97;;;27.13;;
76380;SDS011;65202;52.520;10.528;2023-01-23T14:08:18;65.60;;;27.73;;
76380;SDS011;65202;52.520;10.528;2023-01-23T14:11:02;62.42;;;27.48;;
76380;SDS011;65202;52.520;10.528;2023-01-23T14:13:53;63.50;;;26.85;;
76380;SDS011;65202;52.520;10.528;2023-01-23T14:16:54;64.10;;;26.90;;
76380;SDS011;65202;52.520;10.528;2023-01-23T14:19:37;70.05;;;28.33;;
76380;SDS011;65202;52.520;10.528;2023-01-23T14:22:34;69.13;;;29.08;;
76380;SDS011;65202;52.520;10.528;2023-01-23T14:25:01;66.07;;;29.10;;
76380;SDS011;65202;52.520;10.528;2023-01-23T14:30:17;81.43;;;31.85;;
76380;SDS011;65202;52.520;10.528;2023-01-23T14:32:53;73.60;;;31.42;;
76380;SDS011;65202;52.520;10.528;2023-01-23T14:35:35;76.83;;;31.20;;
76380;SDS011;65202;52.520;10.528;2023-01-23T14:38:04;75.05;;;31.83;;
76380;SDS011;65202;52.520;10.528;2023-01-23T14:40:33;76.35;;;32.95;;
76380;SDS011;65202;52.520;10.528;2023-01-23T14:43:17;74.65;;;30.55;;
76380;SDS011;65202;52.520;10.528;2023-01-23T14:48:34;80.07;;;32.05;;
76380;SDS011;65202;52.520;10.528;2023-01-23T14:51:08;74.75;;;31.60;;
76380;SDS011;65202;52.520;10.528;2023-01-23T14:53:49;79.75;;;33.47;;
76380;SDS011;65202;52.520;10.528;2023-01-23T14:56:32;76.37;;;32.37;;
76380;SDS011;65202;52.520;10.528;2023-01-23T14:59:04;75.60;;;32.15;;
76380;SDS011;65202;52.520;10.528;2023-01-23T15:01:41;74.85;;;31.95;;
76380;SDS011;65202;52.520;10.528;2023-01-23T15:04:21;78.35;;;33.58;;
76380;SDS011;65202;52.520;10.528;2023-01-23T15:06:51;80.73;;;33.33;;
76380;SDS011;65202;52.520;10.528;2023-01-23T15:09:29;75.40;;;31.27;;
76380;SDS011;65202;52.520;10.528;2023-01-23T15:12:16;68.60;;;31.60;;
76380;SDS011;65202;52.520;10.528;2023-01-23T15:14:44;73.50;;;32.15;;
76380;SDS011;65202;52.520;10.528;2023-01-23T15:17:18;77.47;;;33.85;;
76380;SDS011;65202;52.520;10.528;2023-01-23T15:19:50;77.68;;;33.33;;
76380;SDS011;65202;52.520;10.528;2023-01-23T15:22:25;72.13;;;32.58;;
76380;SDS011;65202;52.520;10.528;2023-01-23T15:24:55;75.18;;;33.33;;
76380;SDS011;65202;52.520;10.528;2023-01-23T15:27:30;73.63;;;32.78;;
76380;SDS011;65202;52.520;10.528;2023-01-23T15:33:31;73.10;;;33.25;;
76380;SDS011;65202;52.520;10.528;2023-01-23T15:36:07;70.00;;;30.85;;
76380;SDS011;65202;52.520;10.528;2023-01-23T15:38:49;68.18;;;31.15;;
76380;SDS011;65202;52.520;10.528;2023-01-23T15:41:17;77.35;;;31.35;;
76380;SDS011;65202;52.520;10.528;2023-01-23T15:44:00;74.32;;;31.42;;
76380;SDS011;65202;52.520;10.528;2023-01-23T15:46:27;70.53;;;31.83;;
76380;SDS011;65202;52.520;10.528;2023-01-23T15:48:54;71.10;;;31.38;;
76380;SDS011;65202;52.520;10.528;2023-01-23T15:51:21;67.55;;;30.13;;
76380;SDS011;65202;52.520;10.528;2023-01-23T15:53:48;70.55;;;31.23;;
76380;SDS011;65202;52.520;10.528;2023-01-23T15:56:26;71.38;;;30.60;;
76380;SDS011;65202;52.520;10.528;2023-01-23T15:58:57;66.70;;;30.92;;
76380;SDS011;65202;52.520;10.528;2023-01-23T16:01:26;67.40;;;30.67;;
76380;SDS011;65202;52.520;10.528;2023-01-23T16:03:55;68.97;;;30.65;;
76380;SDS011;65202;52.520;10.528;2023-01-23T16:06:22;66.85;;;29.80;;
76380;SDS011;65202;52.520;10.528;2023-01-23T16:08:50;74.38;;;30.20;;
76380;SDS011;65202;52.520;10.528;2023-01-23T16:11:31;67.35;;;30.52;;
76380;SDS011;65202;52.520;10.528;2023-01-23T16:14:00;71.78;;;30.15;;
76380;SDS011;65202;52.520;10.528;2023-01-23T16:16:28;76.95;;;32.35;;